sensor_id;sensor_type;location;lat;lon;timestamp;temperature;humidity
38183;DHT22;23991;52.430;10.586;2023-01-16T00:00:39;6.60;70.90
38183;DHT22;23991;52.430;10.586;2023-01-16T00:03:05;6.60;71.00
38183;DHT22;23991;52.430;10.586;2023-01-16T00:05:30;6.60;71.00
38183;DHT22;23991;52.430;10.586;2023-01-16T00:07:56;6.60;71.20
38183;DHT22;23991;52.430;10.586;2023-01-16T00:10:22;6.60;71.10
38183;DHT22;23991;52.430;10.586;2023-01-16T00:12:48;6.60;71.40
38183;DHT22;23991;52.430;10.586;2023-01-16T00:15:14;6.60;71.60
38183;DHT22;23991;52.430;10.586;2023-01-16T00:17:39;6.60;71.70
38183;DHT22;23991;52.430;10.586;2023-01-16T00:20:05;6.60;71.70
38183;DHT22;23991;52.430;10.586;2023-01-16T00:22:31;6.60;71.50
38183;DHT22;23991;52.430;10.586;2023-01-16T00:24:56;6.60;71.60
38183;DHT22;23991;52.430;10.586;2023-01-16T00:27:22;6.60;71.70
38183;DHT22;23991;52.430;10.586;2023-01-16T00:29:47;6.60;71.80
38183;DHT22;23991;52.430;10.586;2023-01-16T00:32:13;6.60;71.80
38183;DHT22;23991;52.430;10.586;2023-01-16T00:34:40;6.60;71.70
38183;DHT22;23991;52.430;10.586;2023-01-16T00:37:06;6.60;71.70
38183;DHT22;23991;52.430;10.586;2023-01-16T00:39:32;6.60;71.80
38183;DHT22;23991;52.430;10.586;2023-01-16T00:41:58;6.60;71.90
38183;DHT22;23991;52.430;10.586;2023-01-16T00:44:24;6.50;71.90
38183;DHT22;23991;52.430;10.586;2023-01-16T00:46:50;6.50;71.80
38183;DHT22;23991;52.430;10.586;2023-01-16T00:49:15;6.50;71.90
38183;DHT22;23991;52.430;10.586;2023-01-16T00:51:41;6.50;72.00
38183;DHT22;23991;52.430;10.586;2023-01-16T00:54:06;6.40;72.10
38183;DHT22;23991;52.430;10.586;2023-01-16T00:56:32;6.50;71.90
38183;DHT22;23991;52.430;10.586;2023-01-16T00:58:57;6.40;72.00
38183;DHT22;23991;52.430;10.586;2023-01-16T01:01:23;6.40;71.80
38183;DHT22;23991;52.430;10.586;2023-01-16T01:03:48;6.40;71.80
38183;DHT22;23991;52.430;10.586;2023-01-16T01:06:14;6.40;72.00
38183;DHT22;23991;52.430;10.586;2023-01-16T01:08:39;6.40;72.20
38183;DHT22;23991;52.430;10.586;2023-01-16T01:11:15;6.40;72.10
38183;DHT22;23991;52.430;10.586;2023-01-16T01:13:41;6.40;72.10
38183;DHT22;23991;52.430;10.586;2023-01-16T01:16:07;6.30;72.30
38183;DHT22;23991;52.430;10.586;2023-01-16T01:18:33;6.30;72.10
38183;DHT22;23991;52.430;10.586;2023-01-16T01:20:59;6.30;72.00
38183;DHT22;23991;52.430;10.586;2023-01-16T01:23:24;6.30;72.00
38183;DHT22;23991;52.430;10.586;2023-01-16T01:25:50;6.30;72.10
38183;DHT22;23991;52.430;10.586;2023-01-16T01:28:18;6.30;72.30
38183;DHT22;23991;52.430;10.586;2023-01-16T01:30:43;6.30;72.30
38183;DHT22;23991;52.430;10.586;2023-01-16T01:33:09;6.30;72.20
38183;DHT22;23991;52.430;10.586;2023-01-16T01:35:35;6.30;72.20
38183;DHT22;23991;52.430;10.586;2023-01-16T01:38:01;6.20;72.10
38183;DHT22;23991;52.430;10.586;2023-01-16T01:40:27;6.20;72.20
38183;DHT22;23991;52.430;10.586;2023-01-16T01:42:52;6.20;72.20
38183;DHT22;23991;52.430;10.586;2023-01-16T01:45:28;6.10;72.40
38183;DHT22;23991;52.430;10.586;2023-01-16T01:48:00;6.20;72.40
38183;DHT22;23991;52.430;10.586;2023-01-16T01:53:02;6.10;72.50
38183;DHT22;23991;52.430;10.586;2023-01-16T01:55:28;6.10;72.50
38183;DHT22;23991;52.430;10.586;2023-01-16T01:57:57;6.10;72.60
38183;DHT22;23991;52.430;10.586;2023-01-16T02:00:24;6.10;72.80
38183;DHT22;23991;52.430;10.586;2023-01-16T02:02:56;6.10;72.80
38183;DHT22;23991;52.430;10.586;2023-01-16T02:05:29;6.10;72.90
38183;DHT22;23991;52.430;10.586;2023-01-16T02:07:57;6.10;73.10
38183;DHT22;23991;52.430;10.586;2023-01-16T02:10:34;6.10;73.30
38183;DHT22;23991;52.430;10.586;2023-01-16T02:13:02;6.10;73.60
38183;DHT22;23991;52.430;10.586;2023-01-16T02:15:27;6.10;73.70
38183;DHT22;23991;52.430;10.586;2023-01-16T02:17:53;6.10;73.80
38183;DHT22;23991;52.430;10.586;2023-01-16T02:21:01;6.10;73.80
38183;DHT22;23991;52.430;10.586;2023-01-16T02:23:45;6.00;73.70
38183;DHT22;23991;52.430;10.586;2023-01-16T02:26:33;6.00;73.80
38183;DHT22;23991;52.430;10.586;2023-01-16T02:47:25;6.10;73.30
38183;DHT22;23991;52.430;10.586;2023-01-16T02:50:11;6.10;73.10
38183;DHT22;23991;52.430;10.586;2023-01-16T02:53:04;6.00;73.20
38183;DHT22;23991;52.430;10.586;2023-01-16T02:55:57;6.00;73.20
38183;DHT22;23991;52.430;10.586;2023-01-16T02:58:30;5.90;73.30
38183;DHT22;23991;52.430;10.586;2023-01-16T03:00:58;5.90;73.60
38183;DHT22;23991;52.430;10.586;2023-01-16T03:06:17;5.90;73.80
38183;DHT22;23991;52.430;10.586;2023-01-16T03:11:24;5.90;73.70
38183;DHT22;23991;52.430;10.586;2023-01-16T03:14:14;5.90;73.70
38183;DHT22;23991;52.430;10.586;2023-01-16T03:16:55;5.90;73.70
38183;DHT22;23991;52.430;10.586;2023-01-16T03:22:52;5.90;73.50
38183;DHT22;23991;52.430;10.586;2023-01-16T03:26:01;5.90;73.60
38183;DHT22;23991;52.430;10.586;2023-01-16T03:28:57;5.90;73.40
38183;DHT22;23991;52.430;10.586;2023-01-16T03:34:16;5.90;73.30
38183;DHT22;23991;52.430;10.586;2023-01-16T03:36:59;5.90;73.30
38183;DHT22;23991;52.430;10.586;2023-01-16T03:39:34;5.90;73.30
38183;DHT22;23991;52.430;10.586;2023-01-16T03:42:05;5.90;73.20
38183;DHT22;23991;52.430;10.586;2023-01-16T03:44:35;5.90;73.30
38183;DHT22;23991;52.430;10.586;2023-01-16T03:47:05;5.90;73.10
38183;DHT22;23991;52.430;10.586;2023-01-16T03:49:40;5.90;73.10
38183;DHT22;23991;52.430;10.586;2023-01-16T03:52:11;5.90;73.00
38183;DHT22;23991;52.430;10.586;2023-01-16T03:54:48;5.90;72.80
38183;DHT22;23991;52.430;10.586;2023-01-16T03:57:20;5.80;72.90
38183;DHT22;23991;52.430;10.586;2023-01-16T03:59:46;5.90;73.20
38183;DHT22;23991;52.430;10.586;2023-01-16T04:02:17;5.80;73.20
38183;DHT22;23991;52.430;10.586;2023-01-16T04:05:20;5.80;73.50
38183;DHT22;23991;52.430;10.586;2023-01-16T04:07:54;5.80;73.40
38183;DHT22;23991;52.430;10.586;2023-01-16T04:10:24;5.90;73.30
38183;DHT22;23991;52.430;10.586;2023-01-16T04:13:15;5.90;73.10
38183;DHT22;23991;52.430;10.586;2023-01-16T04:15:45;5.90;73.00
38183;DHT22;23991;52.430;10.586;2023-01-16T04:18:11;5.90;72.90
38183;DHT22;23991;52.430;10.586;2023-01-16T04:20:37;5.90;72.70
38183;DHT22;23991;52.430;10.586;2023-01-16T04:23:05;5.90;72.60
38183;DHT22;23991;52.430;10.586;2023-01-16T04:25:30;5.90;72.50
38183;DHT22;23991;52.430;10.586;2023-01-16T04:27:56;5.90;72.40
38183;DHT22;23991;52.430;10.586;2023-01-16T04:30:21;5.80;72.50
38183;DHT22;23991;52.430;10.586;2023-01-16T04:32:47;5.80;72.60
38183;DHT22;23991;52.430;10.586;2023-01-16T04:35:13;5.80;72.50
38183;DHT22;23991;52.430;10.586;2023-01-16T04:37:38;5.80;72.40
38183;DHT22;23991;52.430;10.586;2023-01-16T04:40:04;5.80;72.30
38183;DHT22;23991;52.430;10.586;2023-01-16T04:42:30;5.80;72.40
38183;DHT22;23991;52.430;10.586;2023-01-16T04:44:55;5.80;72.40
38183;DHT22;23991;52.430;10.586;2023-01-16T04:47:21;5.80;72.50
38183;DHT22;23991;52.430;10.586;2023-01-16T04:49:46;5.80;72.50
38183;DHT22;23991;52.430;10.586;2023-01-16T04:52:12;5.80;72.50
38183;DHT22;23991;52.430;10.586;2023-01-16T04:54:38;5.80;72.50
38183;DHT22;23991;52.430;10.586;2023-01-16T04:57:04;5.80;72.30
38183;DHT22;23991;52.430;10.586;2023-01-16T04:59:30;5.80;72.20
38183;DHT22;23991;52.430;10.586;2023-01-16T05:01:55;5.80;72.30
38183;DHT22;23991;52.430;10.586;2023-01-16T05:04:21;5.80;72.40
38183;DHT22;23991;52.430;10.586;2023-01-16T05:06:47;5.80;72.50
38183;DHT22;23991;52.430;10.586;2023-01-16T05:09:12;5.80;72.50
38183;DHT22;23991;52.430;10.586;2023-01-16T05:11:38;5.70;72.60
38183;DHT22;23991;52.430;10.586;2023-01-16T05:14:04;5.70;72.70
38183;DHT22;23991;52.430;10.586;2023-01-16T05:16:34;5.60;72.90
38183;DHT22;23991;52.430;10.586;2023-01-16T05:19:00;5.70;73.10
38183;DHT22;23991;52.430;10.586;2023-01-16T05:21:26;5.70;73.30
38183;DHT22;23991;52.430;10.586;2023-01-16T05:23:52;5.70;73.30
38183;DHT22;23991;52.430;10.586;2023-01-16T05:26:18;5.70;73.40
38183;DHT22;23991;52.430;10.586;2023-01-16T05:28:43;5.80;73.60
38183;DHT22;23991;52.430;10.586;2023-01-16T05:31:09;5.80;73.70
38183;DHT22;23991;52.430;10.586;2023-01-16T05:33:35;5.70;73.80
38183;DHT22;23991;52.430;10.586;2023-01-16T05:36:00;5.70;73.80
38183;DHT22;23991;52.430;10.586;2023-01-16T05:38:26;5.70;73.80
38183;DHT22;23991;52.430;10.586;2023-01-16T05:40:51;5.70;73.70
38183;DHT22;23991;52.430;10.586;2023-01-16T05:43:17;5.70;73.70
38183;DHT22;23991;52.430;10.586;2023-01-16T05:45:43;5.70;73.70
38183;DHT22;23991;52.430;10.586;2023-01-16T05:48:08;5.70;73.60
38183;DHT22;23991;52.430;10.586;2023-01-16T05:50:34;5.60;73.30
38183;DHT22;23991;52.430;10.586;2023-01-16T05:52:59;5.60;73.30
38183;DHT22;23991;52.430;10.586;2023-01-16T05:55:25;5.50;73.20
38183;DHT22;23991;52.430;10.586;2023-01-16T05:57:51;5.60;73.20
38183;DHT22;23991;52.430;10.586;2023-01-16T06:00:17;5.50;73.30
38183;DHT22;23991;52.430;10.586;2023-01-16T06:02:43;5.50;73.30
38183;DHT22;23991;52.430;10.586;2023-01-16T06:05:08;5.50;73.20
38183;DHT22;23991;52.430;10.586;2023-01-16T06:07:34;5.50;73.20
38183;DHT22;23991;52.430;10.586;2023-01-16T06:10:00;5.40;73.30
38183;DHT22;23991;52.430;10.586;2023-01-16T06:12:26;5.40;73.40
38183;DHT22;23991;52.430;10.586;2023-01-16T06:14:51;5.40;73.60
38183;DHT22;23991;52.430;10.586;2023-01-16T06:17:17;5.40;73.60
38183;DHT22;23991;52.430;10.586;2023-01-16T06:19:44;5.40;73.70
38183;DHT22;23991;52.430;10.586;2023-01-16T06:22:11;5.40;73.80
38183;DHT22;23991;52.430;10.586;2023-01-16T06:24:37;5.40;73.70
38183;DHT22;23991;52.430;10.586;2023-01-16T06:27:02;5.30;73.80
38183;DHT22;23991;52.430;10.586;2023-01-16T06:29:28;5.30;73.90
38183;DHT22;23991;52.430;10.586;2023-01-16T06:31:53;5.30;74.00
38183;DHT22;23991;52.430;10.586;2023-01-16T06:34:19;5.30;74.00
38183;DHT22;23991;52.430;10.586;2023-01-16T06:36:44;5.30;73.90
38183;DHT22;23991;52.430;10.586;2023-01-16T06:39:13;5.40;74.00
38183;DHT22;23991;52.430;10.586;2023-01-16T06:41:39;5.30;74.40
38183;DHT22;23991;52.430;10.586;2023-01-16T06:44:04;5.20;75.40
38183;DHT22;23991;52.430;10.586;2023-01-16T06:46:30;5.20;76.40
38183;DHT22;23991;52.430;10.586;2023-01-16T06:48:56;5.20;77.20
38183;DHT22;23991;52.430;10.586;2023-01-16T06:51:21;5.20;77.80
38183;DHT22;23991;52.430;10.586;2023-01-16T06:53:47;5.20;78.60
38183;DHT22;23991;52.430;10.586;2023-01-16T06:56:12;5.30;78.80
38183;DHT22;23991;52.430;10.586;2023-01-16T06:58:38;5.30;78.90
38183;DHT22;23991;52.430;10.586;2023-01-16T07:01:04;5.40;78.80
38183;DHT22;23991;52.430;10.586;2023-01-16T07:03:32;5.40;78.60
38183;DHT22;23991;52.430;10.586;2023-01-16T07:05:57;5.40;78.50
38183;DHT22;23991;52.430;10.586;2023-01-16T07:08:23;5.40;78.50
38183;DHT22;23991;52.430;10.586;2023-01-16T07:10:49;5.40;78.50
38183;DHT22;23991;52.430;10.586;2023-01-16T07:13:14;5.40;78.50
38183;DHT22;23991;52.430;10.586;2023-01-16T07:15:44;5.40;78.60
38183;DHT22;23991;52.430;10.586;2023-01-16T07:18:30;5.40;78.80
38183;DHT22;23991;52.430;10.586;2023-01-16T07:21:14;5.40;78.70
38183;DHT22;23991;52.430;10.586;2023-01-16T07:24:02;5.40;78.90
38183;DHT22;23991;52.430;10.586;2023-01-16T07:26:28;5.40;79.00
38183;DHT22;23991;52.430;10.586;2023-01-16T07:28:55;5.40;78.80
38183;DHT22;23991;52.430;10.586;2023-01-16T07:31:22;5.40;78.70
38183;DHT22;23991;52.430;10.586;2023-01-16T07:33:48;5.30;78.50
38183;DHT22;23991;52.430;10.586;2023-01-16T07:36:13;5.30;78.30
38183;DHT22;23991;52.430;10.586;2023-01-16T07:38:39;5.30;78.40
38183;DHT22;23991;52.430;10.586;2023-01-16T07:41:05;5.30;78.40
38183;DHT22;23991;52.430;10.586;2023-01-16T07:43:30;5.40;78.40
38183;DHT22;23991;52.430;10.586;2023-01-16T07:45:56;5.40;78.30
38183;DHT22;23991;52.430;10.586;2023-01-16T07:48:22;5.40;77.90
38183;DHT22;23991;52.430;10.586;2023-01-16T07:50:52;5.40;77.40
38183;DHT22;23991;52.430;10.586;2023-01-16T07:53:19;5.40;77.20
38183;DHT22;23991;52.430;10.586;2023-01-16T07:55:52;5.50;77.10
38183;DHT22;23991;52.430;10.586;2023-01-16T07:58:18;5.50;76.80
38183;DHT22;23991;52.430;10.586;2023-01-16T08:00:44;5.60;76.50
38183;DHT22;23991;52.430;10.586;2023-01-16T08:03:10;5.60;76.60
38183;DHT22;23991;52.430;10.586;2023-01-16T08:05:36;5.70;76.20
38183;DHT22;23991;52.430;10.586;2023-01-16T08:08:02;5.80;76.10
38183;DHT22;23991;52.430;10.586;2023-01-16T08:10:27;5.90;75.60
38183;DHT22;23991;52.430;10.586;2023-01-16T08:12:53;6.10;75.00
38183;DHT22;23991;52.430;10.586;2023-01-16T08:15:18;6.20;74.20
38183;DHT22;23991;52.430;10.586;2023-01-16T08:17:45;6.40;73.60
38183;DHT22;23991;52.430;10.586;2023-01-16T08:20:10;6.50;72.80
38183;DHT22;23991;52.430;10.586;2023-01-16T08:22:42;6.60;72.50
38183;DHT22;23991;52.430;10.586;2023-01-16T08:25:08;6.80;72.00
38183;DHT22;23991;52.430;10.586;2023-01-16T08:27:34;7.10;70.90
38183;DHT22;23991;52.430;10.586;2023-01-16T08:29:59;7.30;69.70
38183;DHT22;23991;52.430;10.586;2023-01-16T08:32:25;7.50;68.90
38183;DHT22;23991;52.430;10.586;2023-01-16T08:34:50;7.50;68.80
38183;DHT22;23991;52.430;10.586;2023-01-16T08:37:16;7.60;68.80
38183;DHT22;23991;52.430;10.586;2023-01-16T08:39:41;7.70;68.70
38183;DHT22;23991;52.430;10.586;2023-01-16T08:42:07;8.00;68.20
38183;DHT22;23991;52.430;10.586;2023-01-16T08:44:51;8.30;66.80
38183;DHT22;23991;52.430;10.586;2023-01-16T08:47:37;8.60;65.30
38183;DHT22;23991;52.430;10.586;2023-01-16T08:50:21;9.10;63.90
38183;DHT22;23991;52.430;10.586;2023-01-16T08:53:06;9.40;63.00
38183;DHT22;23991;52.430;10.586;2023-01-16T08:55:31;9.40;62.60
38183;DHT22;23991;52.430;10.586;2023-01-16T08:57:57;9.50;62.10
38183;DHT22;23991;52.430;10.586;2023-01-16T09:00:28;9.60;61.80
38183;DHT22;23991;52.430;10.586;2023-01-16T09:02:54;9.80;61.40
38183;DHT22;23991;52.430;10.586;2023-01-16T09:05:21;9.90;60.90
38183;DHT22;23991;52.430;10.586;2023-01-16T09:07:47;10.20;59.90
38183;DHT22;23991;52.430;10.586;2023-01-16T09:10:13;10.60;59.10
38183;DHT22;23991;52.430;10.586;2023-01-16T09:12:39;10.90;58.10
38183;DHT22;23991;52.430;10.586;2023-01-16T09:15:25;11.10;57.10
38183;DHT22;23991;52.430;10.586;2023-01-16T09:17:50;11.10;57.30
38183;DHT22;23991;52.430;10.586;2023-01-16T09:20:17;11.40;56.10
38183;DHT22;23991;52.430;10.586;2023-01-16T09:22:42;11.60;54.60
38183;DHT22;23991;52.430;10.586;2023-01-16T09:25:08;11.50;54.50
38183;DHT22;23991;52.430;10.586;2023-01-16T09:27:34;11.40;54.40
38183;DHT22;23991;52.430;10.586;2023-01-16T09:29:59;11.40;53.90
38183;DHT22;23991;52.430;10.586;2023-01-16T09:32:25;11.60;53.80
38183;DHT22;23991;52.430;10.586;2023-01-16T09:34:51;11.70;53.80
38183;DHT22;23991;52.430;10.586;2023-01-16T09:37:17;11.80;52.80
38183;DHT22;23991;52.430;10.586;2023-01-16T09:39:43;12.30;52.20
38183;DHT22;23991;52.430;10.586;2023-01-16T09:45:14;12.70;50.80
38183;DHT22;23991;52.430;10.586;2023-01-16T09:47:44;12.90;50.00
38183;DHT22;23991;52.430;10.586;2023-01-16T09:50:36;13.30;49.10
38183;DHT22;23991;52.430;10.586;2023-01-16T09:53:03;13.50;48.30
38183;DHT22;23991;52.430;10.586;2023-01-16T09:55:58;13.60;47.90
38183;DHT22;23991;52.430;10.586;2023-01-16T09:58:49;13.50;46.90
38183;DHT22;23991;52.430;10.586;2023-01-16T10:01:31;13.20;48.40
38183;DHT22;23991;52.430;10.586;2023-01-16T10:04:12;13.10;48.40
38183;DHT22;23991;52.430;10.586;2023-01-16T10:06:51;12.80;48.50
38183;DHT22;23991;52.430;10.586;2023-01-16T10:09:46;12.60;49.30
38183;DHT22;23991;52.430;10.586;2023-01-16T10:12:14;12.40;50.50
38183;DHT22;23991;52.430;10.586;2023-01-16T10:25:37;12.30;50.60
38183;DHT22;23991;52.430;10.586;2023-01-16T10:31:27;12.00;51.00
38183;DHT22;23991;52.430;10.586;2023-01-16T10:33:58;11.70;51.40
38183;DHT22;23991;52.430;10.586;2023-01-16T10:36:27;11.60;52.30
38183;DHT22;23991;52.430;10.586;2023-01-16T10:38:56;11.60;51.60
38183;DHT22;23991;52.430;10.586;2023-01-16T10:41:35;11.70;52.10
38183;DHT22;23991;52.430;10.586;2023-01-16T10:44:36;11.80;51.40
38183;DHT22;23991;52.430;10.586;2023-01-16T10:47:30;12.00;51.40
38183;DHT22;23991;52.430;10.586;2023-01-16T10:50:16;12.30;50.70
38183;DHT22;23991;52.430;10.586;2023-01-16T10:52:42;12.40;50.30
38183;DHT22;23991;52.430;10.586;2023-01-16T10:55:09;12.70;49.90
38183;DHT22;23991;52.430;10.586;2023-01-16T10:57:49;12.70;49.80
38183;DHT22;23991;52.430;10.586;2023-01-16T11:00:21;12.80;49.10
38183;DHT22;23991;52.430;10.586;2023-01-16T11:02:59;12.70;50.00
38183;DHT22;23991;52.430;10.586;2023-01-16T11:05:34;12.80;49.20
38183;DHT22;23991;52.430;10.586;2023-01-16T11:08:09;12.60;50.00
38183;DHT22;23991;52.430;10.586;2023-01-16T11:10:35;12.90;49.70
38183;DHT22;23991;52.430;10.586;2023-01-16T11:13:01;13.00;49.10
38183;DHT22;23991;52.430;10.586;2023-01-16T11:16:17;12.90;49.10
38183;DHT22;23991;52.430;10.586;2023-01-16T11:19:22;12.80;49.50
38183;DHT22;23991;52.430;10.586;2023-01-16T11:21:51;12.90;49.00
38183;DHT22;23991;52.430;10.586;2023-01-16T11:24:21;12.90;49.20
38183;DHT22;23991;52.430;10.586;2023-01-16T11:26:50;12.90;49.40
38183;DHT22;23991;52.430;10.586;2023-01-16T11:29:17;12.90;49.30
38183;DHT22;23991;52.430;10.586;2023-01-16T11:31:48;12.90;49.50
38183;DHT22;23991;52.430;10.586;2023-01-16T11:34:19;12.80;49.70
38183;DHT22;23991;52.430;10.586;2023-01-16T11:36:46;12.80;49.50
38183;DHT22;23991;52.430;10.586;2023-01-16T11:39:21;12.90;49.30
38183;DHT22;23991;52.430;10.586;2023-01-16T11:41:50;12.80;49.40
38183;DHT22;23991;52.430;10.586;2023-01-16T11:44:33;12.70;49.60
38183;DHT22;23991;52.430;10.586;2023-01-16T11:47:23;12.70;49.80
38183;DHT22;23991;52.430;10.586;2023-01-16T11:49:53;12.40;50.40
38183;DHT22;23991;52.430;10.586;2023-01-16T11:52:20;12.40;50.50
38183;DHT22;23991;52.430;10.586;2023-01-16T11:54:59;12.40;50.60
38183;DHT22;23991;52.430;10.586;2023-01-16T12:08:46;12.30;51.00
38183;DHT22;23991;52.430;10.586;2023-01-16T12:11:44;12.10;51.60
38183;DHT22;23991;52.430;10.586;2023-01-16T12:14:30;12.20;51.80
38183;DHT22;23991;52.430;10.586;2023-01-16T12:17:31;12.20;51.30
38183;DHT22;23991;52.430;10.586;2023-01-16T12:20:24;12.00;51.60
38183;DHT22;23991;52.430;10.586;2023-01-16T12:23:22;12.20;51.80
38183;DHT22;23991;52.430;10.586;2023-01-16T12:25:59;12.10;52.00
38183;DHT22;23991;52.430;10.586;2023-01-16T12:34:09;12.10;50.80
38183;DHT22;23991;52.430;10.586;2023-01-16T12:37:08;12.10;50.90
38183;DHT22;23991;52.430;10.586;2023-01-16T12:42:30;11.90;51.90
38183;DHT22;23991;52.430;10.586;2023-01-16T12:55:34;11.80;49.40
38183;DHT22;23991;52.430;10.586;2023-01-16T12:58:13;11.70;50.30
38183;DHT22;23991;52.430;10.586;2023-01-16T13:01:06;11.70;50.80
38183;DHT22;23991;52.430;10.586;2023-01-16T13:03:41;11.70;50.80
38183;DHT22;23991;52.430;10.586;2023-01-16T13:06:17;11.60;50.50
38183;DHT22;23991;52.430;10.586;2023-01-16T13:08:48;11.40;50.10
38183;DHT22;23991;52.430;10.586;2023-01-16T13:11:31;11.40;50.60
38183;DHT22;23991;52.430;10.586;2023-01-16T13:14:18;11.30;51.30
38183;DHT22;23991;52.430;10.586;2023-01-16T13:16:57;11.20;51.50
38183;DHT22;23991;52.430;10.586;2023-01-16T13:19:28;11.30;51.50
38183;DHT22;23991;52.430;10.586;2023-01-16T13:21:59;11.20;51.30
38183;DHT22;23991;52.430;10.586;2023-01-16T13:24:53;11.10;51.30
38183;DHT22;23991;52.430;10.586;2023-01-16T13:27:24;11.10;51.50
38183;DHT22;23991;52.430;10.586;2023-01-16T13:30:01;11.10;51.00
38183;DHT22;23991;52.430;10.586;2023-01-16T13:32:38;10.70;51.10
38183;DHT22;23991;52.430;10.586;2023-01-16T13:35:21;10.70;51.90
38183;DHT22;23991;52.430;10.586;2023-01-16T13:38:18;10.70;51.60
38183;DHT22;23991;52.430;10.586;2023-01-16T13:43:21;10.80;51.20
38183;DHT22;23991;52.430;10.586;2023-01-16T13:46:08;10.80;51.00
38183;DHT22;23991;52.430;10.586;2023-01-16T13:48:35;10.80;51.10
38183;DHT22;23991;52.430;10.586;2023-01-16T13:51:13;10.90;50.70
38183;DHT22;23991;52.430;10.586;2023-01-16T13:53:40;11.00;51.00
38183;DHT22;23991;52.430;10.586;2023-01-16T13:56:15;11.30;49.80
38183;DHT22;23991;52.430;10.586;2023-01-16T13:58:48;11.20;50.00
38183;DHT22;23991;52.430;10.586;2023-01-16T14:06:44;11.30;50.40
38183;DHT22;23991;52.430;10.586;2023-01-16T14:11:59;11.40;49.00
38183;DHT22;23991;52.430;10.586;2023-01-16T14:17:16;11.30;49.30
38183;DHT22;23991;52.430;10.586;2023-01-16T14:20:00;11.50;49.10
38183;DHT22;23991;52.430;10.586;2023-01-16T14:22:34;11.60;49.30
38183;DHT22;23991;52.430;10.586;2023-01-16T14:25:01;11.60;48.80
38183;DHT22;23991;52.430;10.586;2023-01-16T14:27:32;11.60;48.60
38183;DHT22;23991;52.430;10.586;2023-01-16T14:30:03;11.40;49.20
38183;DHT22;23991;52.430;10.586;2023-01-16T14:32:31;11.30;49.60
38183;DHT22;23991;52.430;10.586;2023-01-16T14:35:00;11.30;49.50
38183;DHT22;23991;52.430;10.586;2023-01-16T14:37:38;11.40;49.40
38183;DHT22;23991;52.430;10.586;2023-01-16T14:42:36;11.30;50.10
38183;DHT22;23991;52.430;10.586;2023-01-16T14:54:09;10.90;51.20
38183;DHT22;23991;52.430;10.586;2023-01-16T14:57:18;10.90;51.10
38183;DHT22;23991;52.430;10.586;2023-01-16T15:00:07;11.00;51.10
38183;DHT22;23991;52.430;10.586;2023-01-16T15:02:57;10.80;51.50
38183;DHT22;23991;52.430;10.586;2023-01-16T15:08:30;10.70;52.20
38183;DHT22;23991;52.430;10.586;2023-01-16T15:11:00;10.60;52.30
38183;DHT22;23991;52.430;10.586;2023-01-16T15:13:46;10.50;52.40
38183;DHT22;23991;52.430;10.586;2023-01-16T15:16:30;10.40;53.20
38183;DHT22;23991;52.430;10.586;2023-01-16T15:19:16;10.20;53.50
38183;DHT22;23991;52.430;10.586;2023-01-16T15:22:18;10.30;53.80
38183;DHT22;23991;52.430;10.586;2023-01-16T15:24:49;10.40;53.50
38183;DHT22;23991;52.430;10.586;2023-01-16T15:27:21;10.40;53.40
38183;DHT22;23991;52.430;10.586;2023-01-16T15:30:04;10.30;53.80
38183;DHT22;23991;52.430;10.586;2023-01-16T15:32:58;10.40;53.80
38183;DHT22;23991;52.430;10.586;2023-01-16T15:35:43;10.40;53.70
38183;DHT22;23991;52.430;10.586;2023-01-16T15:38:09;10.30;53.70
38183;DHT22;23991;52.430;10.586;2023-01-16T15:40:35;10.10;54.10
38183;DHT22;23991;52.430;10.586;2023-01-16T15:43:01;9.90;54.70
38183;DHT22;23991;52.430;10.586;2023-01-16T15:45:53;9.80;55.10
38183;DHT22;23991;52.430;10.586;2023-01-16T15:48:54;9.80;55.20
38183;DHT22;23991;52.430;10.586;2023-01-16T15:51:22;9.70;55.60
38183;DHT22;23991;52.430;10.586;2023-01-16T15:53:49;9.70;55.70
38183;DHT22;23991;52.430;10.586;2023-01-16T15:56:35;9.60;56.40
38183;DHT22;23991;52.430;10.586;2023-01-16T15:59:01;9.30;56.60
38183;DHT22;23991;52.430;10.586;2023-01-16T16:01:29;9.30;57.00
38183;DHT22;23991;52.430;10.586;2023-01-16T16:03:56;9.20;57.10
38183;DHT22;23991;52.430;10.586;2023-01-16T16:06:23;9.10;57.50
38183;DHT22;23991;52.430;10.586;2023-01-16T16:08:52;9.20;57.60
38183;DHT22;23991;52.430;10.586;2023-01-16T16:14:03;8.90;58.10
38183;DHT22;23991;52.430;10.586;2023-01-16T16:17:26;8.90;58.30
38183;DHT22;23991;52.430;10.586;2023-01-16T16:31:13;8.60;58.90
38183;DHT22;23991;52.430;10.586;2023-01-16T16:33:41;8.60;59.00
38183;DHT22;23991;52.430;10.586;2023-01-16T16:36:07;8.60;59.20
38183;DHT22;23991;52.430;10.586;2023-01-16T16:43:50;8.40;59.80
38183;DHT22;23991;52.430;10.586;2023-01-16T16:48:52;8.30;59.90
38183;DHT22;23991;52.430;10.586;2023-01-16T16:51:22;8.30;59.80
38183;DHT22;23991;52.430;10.586;2023-01-16T16:53:57;8.30;60.20
38183;DHT22;23991;52.430;10.586;2023-01-16T16:56:26;8.20;60.80
38183;DHT22;23991;52.430;10.586;2023-01-16T16:58:54;8.10;61.00
38183;DHT22;23991;52.430;10.586;2023-01-16T17:01:24;8.00;61.10
38183;DHT22;23991;52.430;10.586;2023-01-16T17:04:01;8.00;60.90
38183;DHT22;23991;52.430;10.586;2023-01-16T17:06:30;8.00;60.80
38183;DHT22;23991;52.430;10.586;2023-01-16T17:08:57;7.90;60.60
38183;DHT22;23991;52.430;10.586;2023-01-16T17:11:23;7.90;60.90
38183;DHT22;23991;52.430;10.586;2023-01-16T17:13:49;7.80;60.90
38183;DHT22;23991;52.430;10.586;2023-01-16T17:16:23;7.80;60.90
38183;DHT22;23991;52.430;10.586;2023-01-16T17:18:59;7.80;60.60
38183;DHT22;23991;52.430;10.586;2023-01-16T17:21:25;7.70;60.90
38183;DHT22;23991;52.430;10.586;2023-01-16T17:23:51;7.60;60.90
38183;DHT22;23991;52.430;10.586;2023-01-16T17:26:17;7.60;60.50
38183;DHT22;23991;52.430;10.586;2023-01-16T17:28:42;7.60;60.50
38183;DHT22;23991;52.430;10.586;2023-01-16T17:31:12;7.40;60.80
38183;DHT22;23991;52.430;10.586;2023-01-16T17:33:41;7.30;61.10
38183;DHT22;23991;52.430;10.586;2023-01-16T17:36:10;7.30;61.30
38183;DHT22;23991;52.430;10.586;2023-01-16T17:38:40;7.30;61.50
38183;DHT22;23991;52.430;10.586;2023-01-16T17:41:18;7.30;61.20
38183;DHT22;23991;52.430;10.586;2023-01-16T17:43:56;7.20;61.50
38183;DHT22;23991;52.430;10.586;2023-01-16T17:46:40;7.20;61.50
38183;DHT22;23991;52.430;10.586;2023-01-16T17:49:06;7.20;61.50
38183;DHT22;23991;52.430;10.586;2023-01-16T17:51:31;7.10;61.60
38183;DHT22;23991;52.430;10.586;2023-01-16T17:53:58;7.10;61.80
38183;DHT22;23991;52.430;10.586;2023-01-16T17:56:24;7.10;61.90
38183;DHT22;23991;52.430;10.586;2023-01-16T17:58:53;7.00;62.30
38183;DHT22;23991;52.430;10.586;2023-01-16T18:01:27;7.00;62.20
38183;DHT22;23991;52.430;10.586;2023-01-16T18:03:55;7.00;62.30